createdAt,value
2023-04-15T00:02:17.440Z,56.10
2023-04-15T00:04:48.667Z,56.08
2023-04-15T00:07:19.531Z,56.78
2023-04-15T00:09:51.961Z,56.12
2023-04-15T00:12:23.728Z,56.89
2023-04-15T00:14:53.536Z,56.76
2023-04-15T00:17:23.652Z,55.91
2023-04-15T00:19:53.336Z,56.86
2023-04-15T00:22:23.082Z,57.05
2023-04-15T00:24:52.958Z,57.17
2023-04-15T00:27:22.582Z,56.13
2023-04-15T00:29:52.276Z,55.59
2023-04-15T00:32:22.469Z,55.02
2023-04-15T00:34:52.637Z,54.99
2023-04-15T00:37:24.935Z,54.73
2023-04-15T00:39:54.634Z,54.94
2023-04-15T00:42:24.533Z,54.69
2023-04-15T00:44:56.591Z,55.62
2023-04-15T00:47:26.741Z,55.53
2023-04-15T00:49:56.323Z,54.19
2023-04-15T00:52:32.699Z,55.10
2023-04-15T00:55:06.505Z,54.51
2023-04-15T00:57:36.460Z,54.23
2023-04-15T01:00:09.536Z,54.04
2023-04-15T01:02:39.976Z,54.18
2023-04-15T01:05:10.123Z,53.83
2023-04-15T01:07:39.826Z,54.16
2023-04-15T01:10:10.081Z,54.28
2023-04-15T01:12:41.100Z,54.72
2023-04-15T01:15:12.566Z,55.01
2023-04-15T01:17:42.678Z,55.70
2023-04-15T01:20:13.827Z,55.97
2023-04-15T01:22:43.652Z,55.57
2023-04-15T01:25:18.402Z,55.66
2023-04-15T01:27:48.172Z,55.75
2023-04-15T01:30:17.967Z,56.23
2023-04-15T01:32:47.602Z,57.47
2023-04-15T01:35:17.213Z,57.60
2023-04-15T01:37:47.844Z,58.63
2023-04-15T01:40:18.165Z,58.80
2023-04-15T01:42:48.707Z,60.17
2023-04-15T01:45:19.069Z,61.21
2023-04-15T01:47:53.919Z,62.11
2023-04-15T01:50:23.560Z,64.06
2023-04-15T01:52:53.668Z,65.09
2023-04-15T01:55:26.598Z,67.04
2023-04-15T01:57:57.579Z,66.66
2023-04-15T02:00:27.337Z,69.00
2023-04-15T02:02:59.546Z,70.95
2023-04-15T02:05:29.354Z,68.46
2023-04-15T02:08:02.599Z,68.78
2023-04-15T02:10:32.730Z,69.43
2023-04-15T02:13:02.726Z,70.07
2023-04-15T02:15:32.478Z,69.42
2023-04-15T02:18:02.782Z,69.68
2023-04-15T02:20:35.903Z,69.56
2023-04-15T02:23:08.795Z,71.01
2023-04-15T02:25:53.423Z,70.62
2023-04-15T02:28:29.964Z,70.57
2023-04-15T02:31:01.349Z,70.39
2023-04-15T02:33:34.128Z,69.50
2023-04-15T02:36:03.985Z,69.22
2023-04-15T02:38:34.580Z,69.35
2023-04-15T02:41:04.538Z,69.18
2023-04-15T02:43:36.794Z,69.30
2023-04-15T02:46:09.322Z,68.72
2023-04-15T02:48:45.049Z,68.75
2023-04-15T02:51:21.219Z,69.40
2023-04-15T02:53:51.582Z,68.92
2023-04-15T02:56:21.310Z,69.22
2023-04-15T02:58:52.327Z,69.00
2023-04-15T03:01:22.151Z,68.17
2023-04-15T03:03:51.940Z,68.84
2023-04-15T03:06:21.666Z,68.62
2023-04-15T03:08:58.613Z,68.19
2023-04-15T03:11:35.406Z,68.52
2023-04-15T03:14:06.019Z,69.80
2023-04-15T03:16:35.788Z,70.06
2023-04-15T03:19:05.631Z,70.42
2023-04-15T03:21:35.245Z,69.84
2023-04-15T03:24:05.081Z,69.55
2023-04-15T03:26:34.935Z,67.62
2023-04-15T03:29:13.354Z,68.56
2023-04-15T03:31:46.105Z,68.61
2023-04-15T03:34:18.809Z,68.27
2023-04-15T03:36:49.114Z,68.11
2023-04-15T03:39:21.977Z,68.12
2023-04-15T03:41:51.769Z,68.56
2023-04-15T03:44:21.524Z,70.09
2023-04-15T03:46:51.184Z,69.87
2023-04-15T03:49:21.431Z,68.85
2023-04-15T03:51:51.138Z,70.55
2023-04-15T03:54:24.304Z,70.16
2023-04-15T03:56:54.024Z,69.58
2023-04-15T03:59:23.842Z,70.33
2023-04-15T04:01:53.811Z,66.65
2023-04-15T04:04:25.748Z,68.69
2023-04-15T04:06:55.409Z,67.68
2023-04-15T04:09:25.149Z,68.06
2023-04-15T04:11:54.882Z,68.01
2023-04-15T04:14:32.993Z,68.39
2023-04-15T04:17:06.007Z,68.52
2023-04-15T04:19:38.873Z,69.02
2023-04-15T04:22:08.766Z,70.03
2023-04-15T04:24:38.452Z,70.60
2023-04-15T04:27:08.170Z,70.01
2023-04-15T04:29:37.789Z,69.47
2023-04-15T04:32:07.757Z,68.89
2023-04-15T04:34:37.716Z,70.23
2023-04-15T04:37:08.854Z,69.13
2023-04-15T04:39:38.540Z,68.83
2023-04-15T04:42:08.143Z,69.00
2023-04-15T04:44:37.784Z,67.62
2023-04-15T04:47:10.255Z,67.40
2023-04-15T04:49:40.175Z,67.97
2023-04-15T04:52:09.788Z,66.85
2023-04-15T04:54:39.371Z,67.04
2023-04-15T04:57:09.717Z,67.41
2023-04-15T04:59:39.613Z,66.96
2023-04-15T05:02:09.819Z,66.57
2023-04-15T05:04:39.468Z,66.47
2023-04-15T05:07:09.788Z,68.45
2023-04-15T05:09:39.488Z,68.81
2023-04-15T05:12:10.572Z,68.59
2023-04-15T05:14:41.377Z,68.53
2023-04-15T05:17:11.298Z,69.63
2023-04-15T05:19:40.931Z,69.11
2023-04-15T05:22:10.819Z,68.29
2023-04-15T05:24:40.558Z,68.94
2023-04-15T05:27:14.710Z,68.08
2023-04-15T05:29:47.483Z,68.22
2023-04-15T05:32:17.259Z,68.08
2023-04-15T05:34:47.134Z,67.07
2023-04-15T05:37:17.258Z,66.87
2023-04-15T05:39:46.967Z,66.61
2023-04-15T05:42:17.080Z,66.46
2023-04-15T05:44:46.822Z,65.25
2023-04-15T05:47:19.544Z,64.66
2023-04-15T05:49:49.222Z,64.18
2023-04-15T05:52:19.001Z,63.49
2023-04-15T05:54:48.662Z,63.19
2023-04-15T05:57:18.340Z,62.90
2023-04-15T05:59:48.273Z,62.97
2023-04-15T06:02:17.995Z,63.37
2023-04-15T06:04:50.931Z,63.24
2023-04-15T06:07:20.672Z,63.36
2023-04-15T06:09:50.289Z,63.36
2023-04-15T06:12:20.011Z,63.26
2023-04-15T06:14:49.678Z,63.35
2023-04-15T06:17:22.709Z,62.28
2023-04-15T06:19:57.068Z,63.35
2023-04-15T06:22:29.905Z,63.43
2023-04-15T06:24:59.964Z,60.27
2023-04-15T06:27:30.292Z,61.02
2023-04-15T06:30:06.328Z,60.40
2023-04-15T06:32:39.242Z,59.55
2023-04-15T06:35:09.191Z,59.28
2023-04-15T06:37:38.842Z,62.79
2023-04-15T06:40:12.272Z,60.27
2023-04-15T06:42:42.197Z,59.87
2023-04-15T06:45:12.298Z,60.48
2023-04-15T06:47:43.407Z,60.62
2023-04-15T06:50:13.431Z,60.86
2023-04-15T06:52:43.443Z,60.52
2023-04-15T06:55:16.739Z,60.31
2023-04-15T06:57:46.606Z,59.62
2023-04-15T07:00:19.256Z,59.42
2023-04-15T07:02:51.523Z,59.58
2023-04-15T07:05:21.716Z,61.07
2023-04-15T07:07:52.780Z,61.13
2023-04-15T07:10:23.328Z,60.61
2023-04-15T07:12:59.180Z,59.72
2023-04-15T07:15:28.854Z,60.01
2023-04-15T07:17:58.675Z,59.00
2023-04-15T07:20:28.826Z,60.19
2023-04-15T07:22:59.078Z,60.35
2023-04-15T07:25:29.037Z,58.23
2023-04-15T07:27:58.757Z,58.79
2023-04-15T07:30:28.395Z,60.12
2023-04-15T07:33:01.325Z,57.11
2023-04-15T07:35:31.060Z,56.59
2023-04-15T07:38:03.864Z,57.09
2023-04-15T07:40:36.777Z,56.17
2023-04-15T07:43:06.887Z,56.55
2023-04-15T07:45:39.454Z,58.33
2023-04-15T07:48:09.950Z,56.79
2023-04-15T07:50:39.734Z,57.06
2023-04-15T07:53:09.923Z,57.87
2023-04-15T07:55:40.065Z,57.08
2023-04-15T07:58:09.788Z,57.26
2023-04-15T08:00:42.295Z,57.89
2023-04-15T08:03:12.125Z,56.07
2023-04-15T08:05:41.949Z,55.57
2023-04-15T08:08:12.013Z,55.22
2023-04-15T08:10:41.715Z,55.16
2023-04-15T08:13:11.312Z,56.23
2023-04-15T08:15:40.989Z,56.65
2023-04-15T08:18:10.849Z,56.50
2023-04-15T08:20:43.476Z,55.27
2023-04-15T08:23:13.134Z,54.61
2023-04-15T08:25:42.797Z,54.07
2023-04-15T08:28:12.937Z,54.13
2023-04-15T08:30:42.920Z,54.54
2023-04-15T08:33:12.664Z,55.59
2023-04-15T08:35:46.882Z,54.14
2023-04-15T08:38:16.542Z,54.38
2023-04-15T08:40:55.290Z,55.64
2023-04-15T08:43:28.206Z,55.05
2023-04-15T08:46:01.558Z,54.99
2023-04-15T08:48:37.418Z,55.32
2023-04-15T08:51:07.135Z,55.72
2023-04-15T08:53:37.040Z,55.76
2023-04-15T08:56:10.400Z,56.09
2023-04-15T08:58:41.259Z,55.91
2023-04-15T09:01:11.001Z,56.70
2023-04-15T09:03:41.532Z,57.56
2023-04-15T09:06:11.489Z,58.09
2023-04-15T09:08:41.136Z,58.54
2023-04-15T09:11:13.902Z,57.93
2023-04-15T09:13:46.485Z,56.94
2023-04-15T09:16:17.364Z,57.04
2023-04-15T09:18:47.236Z,56.86
2023-04-15T09:21:20.805Z,57.58
2023-04-15T09:24:04.488Z,58.54
2023-04-15T09:26:38.969Z,58.24
2023-04-15T09:29:16.039Z,58.10
2023-04-15T09:31:45.782Z,57.14
2023-04-15T09:34:15.361Z,56.55
2023-04-15T09:36:51.656Z,57.67
2023-04-15T09:39:21.579Z,58.21
2023-04-15T09:42:08.433Z,57.96
2023-04-15T09:44:38.247Z,57.60
2023-04-15T09:47:08.486Z,57.62
2023-04-15T09:49:38.583Z,58.88
2023-04-15T09:52:08.256Z,60.22
2023-04-15T09:54:41.297Z,60.04
2023-04-15T09:57:14.925Z,60.75
2023-04-15T09:59:45.323Z,61.72
2023-04-15T10:02:16.317Z,61.79
2023-04-15T10:04:46.488Z,62.34
2023-04-15T10:07:16.408Z,63.07
2023-04-15T10:09:50.723Z,63.71
2023-04-15T10:12:20.872Z,63.52
2023-04-15T10:15:01.885Z,64.41
2023-04-15T10:17:38.574Z,64.50
2023-04-15T10:20:09.264Z,63.42
2023-04-15T10:22:39.277Z,63.98
2023-04-15T10:25:09.369Z,64.61
2023-04-15T10:27:39.036Z,64.28
2023-04-15T10:30:09.396Z,63.38
2023-04-15T10:32:43.024Z,63.88
2023-04-15T10:35:21.972Z,65.25
2023-04-15T10:37:51.629Z,64.82
2023-04-15T10:40:33.038Z,65.80
2023-04-15T10:43:07.704Z,65.67
2023-04-15T10:45:41.233Z,65.30
2023-04-15T10:48:11.082Z,65.18
2023-04-15T10:50:41.083Z,66.17
2023-04-15T10:53:23.553Z,66.11
2023-04-15T10:55:53.505Z,65.23
2023-04-15T10:58:29.037Z,66.68
2023-04-15T11:01:01.648Z,66.51
2023-04-15T11:03:42.427Z,66.49
2023-04-15T11:06:13.706Z,66.49
2023-04-15T11:09:00.799Z,67.34
2023-04-15T11:12:10.054Z,67.99
2023-04-15T11:14:47.652Z,67.07
2023-04-15T11:17:17.604Z,67.16
2023-04-15T11:19:47.309Z,65.88
2023-04-15T11:22:17.097Z,66.16
2023-04-15T11:24:56.616Z,66.84
2023-04-15T11:27:26.559Z,66.49
2023-04-15T11:29:56.229Z,66.15
2023-04-15T11:32:31.942Z,65.57
2023-04-15T11:35:01.690Z,64.99
2023-04-15T11:37:33.187Z,65.17
2023-04-15T11:40:05.898Z,65.94
2023-04-15T11:42:49.065Z,65.96
2023-04-15T11:45:18.951Z,65.91
2023-04-15T11:47:55.306Z,66.46
2023-04-15T11:50:29.033Z,66.62
2023-04-15T11:53:08.145Z,67.48
2023-04-15T11:55:54.938Z,67.90
2023-04-15T11:58:29.394Z,67.04
2023-04-15T12:01:09.379Z,67.40
2023-04-15T12:03:48.432Z,67.91
2023-04-15T12:06:25.270Z,66.42
2023-04-15T12:08:57.666Z,66.76
2023-04-15T12:11:35.419Z,68.16
2023-04-15T12:14:32.079Z,68.14
2023-04-15T12:17:08.437Z,68.18
2023-04-15T12:19:50.398Z,67.43
2023-04-15T12:22:21.496Z,66.63
2023-04-15T12:24:58.959Z,66.76
2023-04-15T12:27:30.007Z,67.73
2023-04-15T12:30:09.633Z,68.01
2023-04-15T12:32:40.458Z,67.72
2023-04-15T12:35:11.968Z,67.10
2023-04-15T12:37:44.585Z,67.03
2023-04-15T12:40:14.327Z,66.41
2023-04-15T12:42:43.967Z,68.29
2023-04-15T12:45:16.347Z,68.36
2023-04-15T12:47:46.089Z,68.55
2023-04-15T12:50:15.846Z,68.17
2023-04-15T12:52:48.200Z,68.73
2023-04-15T12:55:18.836Z,68.03
2023-04-15T12:57:48.742Z,67.93
2023-04-15T13:00:21.075Z,68.41
2023-04-15T13:02:50.882Z,67.01
2023-04-15T13:05:20.913Z,68.22
2023-04-15T13:07:50.541Z,68.30
2023-04-15T13:10:20.312Z,67.54
2023-04-15T13:12:58.388Z,68.31
2023-04-15T13:15:28.057Z,67.90
2023-04-15T13:17:58.410Z,66.75
2023-04-15T13:20:29.054Z,67.73
2023-04-15T13:22:58.739Z,68.47
2023-04-15T13:25:28.632Z,68.26
2023-04-15T13:27:59.203Z,67.22
2023-04-15T13:30:43.406Z,66.62
2023-04-15T13:33:14.204Z,66.72
2023-04-15T13:35:44.706Z,65.73
2023-04-15T13:38:17.023Z,65.17
2023-04-15T13:40:46.974Z,65.95
2023-04-15T13:43:17.215Z,66.06
2023-04-15T13:45:48.415Z,66.62
2023-04-15T13:48:18.099Z,65.81
2023-04-15T13:50:47.820Z,65.42
2023-04-15T13:53:20.683Z,65.42
2023-04-15T13:56:06.747Z,66.16
2023-04-15T13:58:36.429Z,65.32
2023-04-15T14:01:09.302Z,65.40
2023-04-15T14:03:39.636Z,65.73
2023-04-15T14:06:09.810Z,65.93
2023-04-15T14:08:39.423Z,65.53
2023-04-15T14:11:12.023Z,66.12
2023-04-15T14:13:41.927Z,67.44
2023-04-15T14:16:11.619Z,66.25
2023-04-15T14:18:42.557Z,66.80
2023-04-15T14:21:15.339Z,66.05
2023-04-15T14:23:45.321Z,64.11
2023-04-15T14:26:15.740Z,65.26
2023-04-15T14:28:46.931Z,65.16
2023-04-15T14:31:16.758Z,65.02
2023-04-15T14:33:46.433Z,66.51
2023-04-15T14:36:16.029Z,67.25
2023-04-15T14:38:48.733Z,66.92
2023-04-15T14:41:19.009Z,66.64
2023-04-15T14:43:48.683Z,66.60
2023-04-15T14:46:18.610Z,65.50
2023-04-15T14:48:48.234Z,66.45
2023-04-15T14:51:18.771Z,65.89
2023-04-15T14:53:48.641Z,66.56
2023-04-15T14:56:18.296Z,66.22
2023-04-15T14:58:47.983Z,65.16
2023-04-15T15:01:17.886Z,64.58
2023-04-15T15:03:47.861Z,64.81
2023-04-15T15:06:17.959Z,65.22
2023-04-15T15:08:50.937Z,65.77
2023-04-15T15:11:20.600Z,66.68
2023-04-15T15:13:52.745Z,66.27
2023-04-15T15:16:25.471Z,66.95
2023-04-15T15:18:55.197Z,66.80
2023-04-15T15:21:25.379Z,66.34
2023-04-15T15:23:57.641Z,66.40
2023-04-15T15:26:29.917Z,66.13
2023-04-15T15:28:59.631Z,65.17
2023-04-15T15:31:29.493Z,65.54
2023-04-15T15:33:59.438Z,67.17
2023-04-15T15:36:29.777Z,68.50
2023-04-15T15:39:00.971Z,67.77
2023-04-15T15:41:31.613Z,66.84
2023-04-15T15:44:06.813Z,67.66
2023-04-15T15:46:36.572Z,67.60
2023-04-15T15:49:06.479Z,67.54
2023-04-15T15:51:39.292Z,68.65
2023-04-15T15:54:08.975Z,68.06
2023-04-15T15:56:39.989Z,66.89
2023-04-15T15:59:10.308Z,66.35
2023-04-15T16:01:40.009Z,65.83
2023-04-15T16:04:11.837Z,67.39
2023-04-15T16:06:42.376Z,67.75
2023-04-15T16:09:12.258Z,67.91
2023-04-15T16:11:42.913Z,68.11
2023-04-15T16:14:12.756Z,68.33
2023-04-15T16:16:42.648Z,68.08
2023-04-15T16:19:13.050Z,69.44
2023-04-15T16:21:42.951Z,68.77
2023-04-15T16:24:15.424Z,68.22
2023-04-15T16:26:45.095Z,68.23
2023-04-15T16:29:14.786Z,67.56
2023-04-15T16:31:44.435Z,67.42
2023-04-15T16:34:14.236Z,68.22
2023-04-15T16:36:44.006Z,67.96
2023-04-15T16:39:13.698Z,68.12
2023-04-15T16:41:44.427Z,67.77
2023-04-15T16:44:14.043Z,67.83
2023-04-15T16:46:43.720Z,68.68
2023-04-15T16:49:13.516Z,68.26
2023-04-15T16:51:43.214Z,68.92
2023-04-15T16:54:13.385Z,69.11
2023-04-15T16:56:43.127Z,69.54
2023-04-15T16:59:15.500Z,69.60
2023-04-15T17:01:45.931Z,68.02
2023-04-15T17:04:15.844Z,67.11
2023-04-15T17:06:51.935Z,67.50
2023-04-15T17:09:21.587Z,67.67
2023-04-15T17:11:51.256Z,67.78
2023-04-15T17:14:24.027Z,68.23
2023-04-15T17:16:53.612Z,68.32
2023-04-15T17:19:32.576Z,68.14
2023-04-15T17:22:02.736Z,68.38
2023-04-15T17:24:35.148Z,68.75
2023-04-15T17:27:04.813Z,69.95
2023-04-15T17:29:35.089Z,70.10
2023-04-15T17:32:05.248Z,70.56
2023-04-15T17:34:49.819Z,70.09
2023-04-15T17:37:20.590Z,68.05
2023-04-15T17:39:50.251Z,68.54
2023-04-15T17:42:20.021Z,68.90
2023-04-15T17:44:49.669Z,69.81
2023-04-15T17:47:21.957Z,69.67
2023-04-15T17:49:51.505Z,68.36
2023-04-15T17:52:21.747Z,68.71
2023-04-15T17:54:51.810Z,69.20
2023-04-15T17:57:22.480Z,69.37
2023-04-15T17:59:52.285Z,70.47
2023-04-15T18:02:22.238Z,69.86
2023-04-15T18:04:52.699Z,69.65
2023-04-15T18:07:22.753Z,69.93
2023-04-15T18:09:52.554Z,70.44
2023-04-15T18:12:22.294Z,70.06
2023-04-15T18:14:52.009Z,70.34
2023-04-15T18:17:21.977Z,70.06
2023-04-15T18:19:55.010Z,68.08
2023-04-15T18:22:27.405Z,69.61
2023-04-15T18:24:59.285Z,69.46
2023-04-15T18:27:30.090Z,68.66
2023-04-15T18:29:59.907Z,67.97
2023-04-15T18:32:31.937Z,68.39
2023-04-15T18:35:05.945Z,68.23
2023-04-15T18:37:35.636Z,68.50
2023-04-15T18:40:05.368Z,68.40
2023-04-15T18:42:35.031Z,68.69
2023-04-15T18:45:05.339Z,67.40
2023-04-15T18:47:35.341Z,66.29
2023-04-15T18:50:05.218Z,66.37
2023-04-15T18:52:35.670Z,67.39
2023-04-15T18:55:12.417Z,66.07
2023-04-15T18:57:45.811Z,67.31
2023-04-15T19:00:20.125Z,68.83
2023-04-15T19:02:50.012Z,67.71
2023-04-15T19:05:19.926Z,66.83
2023-04-15T19:07:49.940Z,66.92
2023-04-15T19:10:19.684Z,66.95
2023-04-15T19:12:49.256Z,68.08
2023-04-15T19:15:19.054Z,68.99
2023-04-15T19:17:48.942Z,69.18
2023-04-15T19:20:19.348Z,68.90
2023-04-15T19:22:49.097Z,68.63
2023-04-15T19:25:18.853Z,67.63
2023-04-15T19:27:49.045Z,67.89
2023-04-15T19:30:19.124Z,68.24
2023-04-15T19:32:48.907Z,68.78
2023-04-15T19:35:19.026Z,67.93
2023-04-15T19:37:49.884Z,68.54
2023-04-15T19:40:19.584Z,68.40
2023-04-15T19:42:49.318Z,70.18
2023-04-15T19:45:19.018Z,69.27
2023-04-15T19:47:48.691Z,68.34
2023-04-15T19:50:18.543Z,67.44
2023-04-15T19:52:48.551Z,67.19
2023-04-15T19:55:18.467Z,66.41
2023-04-15T19:57:48.159Z,65.12
2023-04-15T20:00:23.320Z,65.52
2023-04-15T20:02:53.158Z,63.68
2023-04-15T20:05:22.989Z,63.02
2023-04-15T20:07:56.354Z,63.17
2023-04-15T20:10:27.226Z,62.55
2023-04-15T20:12:57.194Z,63.68
2023-04-15T20:15:26.870Z,64.47
2023-04-15T20:17:56.592Z,63.52
2023-04-15T20:20:26.316Z,64.43
2023-04-15T20:22:56.342Z,67.34
2023-04-15T20:25:26.059Z,65.51
2023-04-15T20:27:55.736Z,65.65
2023-04-15T20:30:25.365Z,65.48
2023-04-15T20:32:55.038Z,65.14
2023-04-15T20:35:24.926Z,65.46
2023-04-15T20:37:54.776Z,64.53
2023-04-15T20:40:27.395Z,65.45
2023-04-15T20:42:57.485Z,67.56
2023-04-15T20:45:27.275Z,65.06
2023-04-15T20:47:57.653Z,65.02
2023-04-15T20:50:27.398Z,64.24
2023-04-15T20:52:57.699Z,64.62
2023-04-15T20:55:28.956Z,65.89
2023-04-15T20:58:02.963Z,66.28
2023-04-15T21:00:34.521Z,65.61
2023-04-15T21:03:07.442Z,66.25
2023-04-15T21:05:40.140Z,66.65
2023-04-15T21:08:11.259Z,67.29
2023-04-15T21:10:44.011Z,66.43
2023-04-15T21:13:14.688Z,67.19
2023-04-15T21:15:45.260Z,66.40
2023-04-15T21:18:17.941Z,65.87
2023-04-15T21:20:48.037Z,66.41
2023-04-15T21:23:17.617Z,67.05
2023-04-15T21:25:47.371Z,67.56
2023-04-15T21:28:17.065Z,67.33
2023-04-15T21:30:47.432Z,67.98
2023-04-15T21:33:19.897Z,67.02
2023-04-15T21:35:49.621Z,67.35
2023-04-15T21:38:20.800Z,66.67
2023-04-15T21:40:52.771Z,67.40
2023-04-15T21:43:27.478Z,66.82
2023-04-15T21:46:23.469Z,67.31
2023-04-15T21:48:47.795Z,65.75
2023-04-15T21:51:17.792Z,66.02
2023-04-15T21:53:50.302Z,66.90
2023-04-15T21:56:21.754Z,65.89
2023-04-15T21:58:51.495Z,66.62
2023-04-15T22:01:21.189Z,65.10
2023-04-15T22:03:51.776Z,65.35
2023-04-15T22:06:28.611Z,67.35
2023-04-15T22:08:58.261Z,66.02
2023-04-15T22:11:28.825Z,65.31
2023-04-15T22:13:59.715Z,65.11
2023-04-15T22:16:30.142Z,65.78
2023-04-15T22:19:02.651Z,65.53
2023-04-15T22:21:33.348Z,67.10
2023-04-15T22:24:32.973Z,66.42
2023-04-15T22:26:53.001Z,66.04
2023-04-15T22:29:22.720Z,66.16
2023-04-15T22:31:53.667Z,65.20
2023-04-15T22:34:23.560Z,65.83
2023-04-15T22:36:57.148Z,65.44
2023-04-15T22:39:29.464Z,66.00
2023-04-15T22:42:00.252Z,63.60
2023-04-15T22:44:29.882Z,66.22
2023-04-15T22:46:59.533Z,66.93
2023-04-15T22:49:29.307Z,66.30
2023-04-15T22:52:02.321Z,66.70
2023-04-15T22:54:32.988Z,66.65
2023-04-15T22:57:02.683Z,67.05
2023-04-15T22:59:32.485Z,65.78
2023-04-15T23:02:02.412Z,66.10
2023-04-15T23:04:32.658Z,65.40
2023-04-15T23:07:02.444Z,64.62
2023-04-15T23:09:32.754Z,64.40
2023-04-15T23:12:02.938Z,62.85
2023-04-15T23:14:34.782Z,63.81
2023-04-15T23:17:04.377Z,63.82
2023-04-15T23:19:35.255Z,63.50
2023-04-15T23:22:05.439Z,63.22
2023-04-15T23:24:35.127Z,64.55
2023-04-15T23:27:07.543Z,62.84
2023-04-15T23:29:37.933Z,62.40
2023-04-15T23:32:08.649Z,62.39
2023-04-15T23:34:38.311Z,62.41
2023-04-15T23:37:08.017Z,61.99
2023-04-15T23:39:37.839Z,62.18
2023-04-15T23:42:13.257Z,60.99
2023-04-15T23:44:42.858Z,61.44
2023-04-15T23:47:15.650Z,60.56
2023-04-15T23:49:45.284Z,62.54
2023-04-15T23:52:14.978Z,62.38
2023-04-15T23:54:51.373Z,62.47
2023-04-15T23:57:21.075Z,61.17
2023-04-15T23:59:50.891Z,61.80
